Time;durP1;ratioP1;P1;durP2;ratioP2;P2;SDS_P1;SDS_P2;PMS_P1;PMS_P2;Temp;Humidity;BMP_temperature;BMP_pressure;BME280_temperature;BME280_humidity;BME280_pressure;Samples;Min_cycle;Max_cycle;Signal;HPM_P1;HPM_P2
2024/02/06 00:02:01;;;;;;;216.38;153.00;;;19.30;74.70;;;;;;5056350;28;20480;-67
2024/02/06 00:04:26;;;;;;;210.75;148.30;;;19.40;74.70;;;;;;5059519;28;20060;-69
2024/02/06 00:06:52;;;;;;;214.45;152.82;;;19.30;74.60;;;;;;5064332;28;20051;-68
2024/02/06 00:09:17;;;;;;;204.23;149.27;;;19.40;75.00;;;;;;5053411;28;20517;-68
2024/02/06 00:11:43;;;;;;;210.48;149.80;;;19.40;74.70;;;;;;5064617;28;20020;-69
2024/02/06 00:14:10;;;;;;;206.93;147.15;;;19.40;75.30;;;;;;5058551;28;20039;-68
2024/02/06 00:16:40;;;;;;;209.90;147.85;;;19.40;75.10;;;;;;5057683;28;20504;-68
2024/02/06 00:19:05;;;;;;;205.57;145.60;;;19.30;75.20;;;;;;5066242;28;20450;-69
2024/02/06 00:21:32;;;;;;;199.00;143.57;;;19.40;75.30;;;;;;5054916;28;20020;-69
2024/02/06 00:24:01;;;;;;;199.82;143.13;;;19.30;75.10;;;;;;5066805;28;20017;-67
2024/02/06 00:26:26;;;;;;;207.35;146.95;;;19.30;75.20;;;;;;5064034;28;20020;-68
2024/02/06 00:28:52;;;;;;;198.93;142.77;;;19.30;75.20;;;;;;5059335;28;20051;-68
2024/02/06 00:31:18;;;;;;;203.73;143.95;;;19.30;75.30;;;;;;5068117;28;20086;-68
2024/02/06 00:33:43;;;;;;;191.02;138.18;;;19.30;75.30;;;;;;5068810;28;20469;-67
2024/02/06 00:36:09;;;;;;;200.70;143.70;;;19.30;75.10;;;;;;5061605;28;20040;-69
2024/02/06 00:38:34;;;;;;;195.85;138.00;;;19.40;75.40;;;;;;5061767;28;20422;-70
2024/02/06 00:41:00;;;;;;;186.57;135.73;;;19.30;75.40;;;;;;5067947;28;20024;-70
2024/02/06 00:43:26;;;;;;;190.00;136.77;;;19.30;75.30;;;;;;5056952;28;20049;-71
2024/02/06 00:45:51;;;;;;;196.40;138.77;;;19.40;75.50;;;;;;5066867;28;20017;-71
2024/02/06 00:48:17;;;;;;;185.07;135.00;;;19.40;75.50;;;;;;5061005;28;20032;-69
2024/02/06 00:50:42;;;;;;;188.68;135.50;;;19.40;75.70;;;;;;5059480;28;20029;-69
2024/02/06 00:53:08;;;;;;;182.95;131.43;;;19.40;75.70;;;;;;5069872;28;20028;-69
2024/02/06 00:55:34;;;;;;;182.40;133.57;;;19.30;75.70;;;;;;5040078;28;20025;-69
2024/02/06 00:58:00;;;;;;;182.05;131.20;;;19.40;75.60;;;;;;5065914;28;20083;-70
2024/02/06 01:00:26;;;;;;;180.35;131.27;;;19.40;75.60;;;;;;5045495;28;20028;-71
2024/02/06 01:02:51;;;;;;;176.82;129.93;;;19.40;75.70;;;;;;5067525;28;20078;-69
2024/02/06 01:05:17;;;;;;;184.18;127.57;;;19.40;75.70;;;;;;5056216;28;20029;-70
2024/02/06 01:07:42;;;;;;;177.25;127.90;;;19.40;75.70;;;;;;5068281;28;20025;-71
2024/02/06 01:10:08;;;;;;;185.68;130.68;;;19.40;75.80;;;;;;5060517;28;20430;-72
2024/02/06 01:12:34;;;;;;;186.05;127.10;;;19.40;75.80;;;;;;5060795;28;20049;-70
2024/02/06 01:15:00;;;;;;;173.40;124.63;;;19.40;75.80;;;;;;5068025;28;20040;-69
2024/02/06 01:17:26;;;;;;;170.23;124.10;;;19.40;75.70;;;;;;5056030;28;20757;-68
2024/02/06 01:19:52;;;;;;;170.57;125.85;;;19.40;75.80;;;;;;5065666;28;20021;-69
2024/02/06 01:22:18;;;;;;;168.88;120.80;;;19.40;75.80;;;;;;5061389;28;20027;-71
2024/02/06 01:24:43;;;;;;;173.25;121.45;;;19.40;76.00;;;;;;5059398;28;20021;-71
2024/02/06 01:27:09;;;;;;;164.77;118.60;;;19.40;75.60;;;;;;5068975;28;20036;-68
2024/02/06 01:29:34;;;;;;;165.80;119.07;;;19.40;75.70;;;;;;5056079;28;20059;-71
2024/02/06 01:32:00;;;;;;;166.60;119.43;;;19.40;75.70;;;;;;5063651;28;20476;-70
2024/02/06 01:34:26;;;;;;;162.15;115.75;;;19.40;75.70;;;;;;5063004;28;20028;-72
2024/02/06 01:36:51;;;;;;;160.88;114.85;;;19.40;75.80;;;;;;5058075;28;20513;-71
2024/02/06 01:39:17;;;;;;;162.90;118.80;;;19.40;75.70;;;;;;5068654;28;20027;-73
2024/02/06 01:41:43;;;;;;;158.63;114.47;;;19.40;75.60;;;;;;5056015;28;20074;-68
2024/02/06 01:44:09;;;;;;;163.32;116.63;;;19.40;75.80;;;;;;5063840;28;20096;-68
2024/02/06 01:46:34;;;;;;;156.27;113.03;;;19.40;75.70;;;;;;5062811;28;20104;-69
2024/02/06 01:49:03;;;;;;;159.60;113.22;;;19.40;75.80;;;;;;5056748;28;20043;-69
2024/02/06 01:51:31;;;;;;;153.75;108.60;;;19.40;75.80;;;;;;5067735;28;20029;-69
2024/02/06 01:53:57;;;;;;;156.38;110.63;;;19.40;75.90;;;;;;5058887;28;20385;-71
2024/02/06 01:56:23;;;;;;;154.55;108.97;;;19.40;76.00;;;;;;5061281;28;20017;-72
2024/02/06 01:58:50;;;;;;;146.23;106.72;;;19.40;75.90;;;;;;5061767;28;20032;-70
2024/02/06 02:01:16;;;;;;;148.40;109.68;;;19.40;75.90;;;;;;5067583;28;20036;-68
2024/02/06 02:03:43;;;;;;;150.25;109.55;;;19.40;75.90;;;;;;5056454;28;20048;-71
2024/02/06 02:06:09;;;;;;;144.40;105.68;;;19.40;76.00;;;;;;5063239;28;20090;-71
2024/02/06 02:08:35;;;;;;;145.73;103.93;;;19.40;75.80;;;;;;5063828;28;20518;-71
2024/02/06 02:11:04;;;;;;;142.73;103.10;;;19.40;75.80;;;;;;5055339;28;20037;-69
2024/02/06 02:13:30;;;;;;;140.93;103.63;;;19.40;75.90;;;;;;5067901;28;20071;-71
2024/02/06 02:15:57;;;;;;;140.95;101.18;;;19.40;75.90;;;;;;5058077;28;20028;-71
2024/02/06 02:18:33;;;;;;;143.52;101.15;;;19.40;76.00;;;;;;5061258;28;20037;-69
2024/02/06 02:20:59;;;;;;;139.25;98.53;;;19.40;76.40;;;;;;5066063;28;20028;-69
2024/02/06 02:23:25;;;;;;;140.73;100.90;;;19.40;76.30;;;;;;5054749;28;20385;-68
2024/02/06 02:25:51;;;;;;;138.13;100.53;;;19.40;76.30;;;;;;5065472;28;20013;-68
2024/02/06 02:28:17;;;;;;;141.68;99.30;;;19.40;76.30;;;;;;5060428;28;20034;-67
2024/02/06 02:30:44;;;;;;;135.25;97.95;;;19.40;76.20;;;;;;5057720;28;20047;-67
2024/02/06 02:33:09;;;;;;;138.95;98.32;;;19.40;76.20;;;;;;5066493;28;20248;-67
2024/02/06 02:35:35;;;;;;;136.73;96.25;;;19.50;76.30;;;;;;5054945;28;20028;-66
2024/02/06 02:38:01;;;;;;;133.68;95.65;;;19.40;76.20;;;;;;5063900;28;20479;-65
2024/02/06 02:40:26;;;;;;;132.77;95.07;;;19.40;76.20;;;;;;5060868;28;20054;-68
2024/02/06 02:42:52;;;;;;;137.90;96.18;;;19.40;76.10;;;;;;5056963;28;20024;-68
2024/02/06 02:45:18;;;;;;;130.70;93.50;;;19.50;76.30;;;;;;5067936;28;20110;-69
2024/02/06 02:47:45;;;;;;;132.15;96.68;;;19.40;76.30;;;;;;5056313;28;20048;-69
2024/02/06 02:50:11;;;;;;;125.35;90.95;;;19.40;76.50;;;;;;5062544;28;20100;-70
2024/02/06 02:52:37;;;;;;;127.07;91.20;;;19.40;76.30;;;;;;5067626;28;20056;-72
2024/02/06 02:55:03;;;;;;;122.10;87.65;;;19.50;76.30;;;;;;5056700;28;20568;-70
2024/02/06 02:57:28;;;;;;;127.40;90.90;;;19.40;76.20;;;;;;5069572;28;20040;-71
2024/02/06 02:59:54;;;;;;;126.72;89.43;;;19.40;76.40;;;;;;5068962;28;20171;-71
2024/02/06 03:02:20;;;;;;;128.48;89.15;;;19.40;76.30;;;;;;5075374;28;20021;-70
2024/02/06 03:04:45;;;;;;;123.50;86.40;;;19.40;76.20;;;;;;5074506;28;20025;-70
2024/02/06 03:07:11;;;;;;;130.00;88.78;;;19.40;76.30;;;;;;5054455;28;20017;-72
2024/02/06 03:09:36;;;;;;;121.93;87.90;;;19.50;76.40;;;;;;5066723;28;20024;-71
2024/02/06 03:12:02;;;;;;;127.22;88.40;;;19.40;76.40;;;;;;5055419;28;20029;-70
2024/02/06 03:14:28;;;;;;;120.97;84.47;;;19.50;76.40;;;;;;5059529;28;20032;-73
2024/02/06 03:16:54;;;;;;;117.13;83.38;;;19.50;76.40;;;;;;5065310;28;20444;-72
2024/02/06 03:19:19;;;;;;;119.15;84.88;;;19.40;76.40;;;;;;5053847;28;20570;-69
2024/02/06 03:21:46;;;;;;;115.15;80.25;;;19.40;76.40;;;;;;5064619;28;20495;-70
2024/02/06 03:24:11;;;;;;;120.43;84.32;;;19.50;76.50;;;;;;5056286;28;20024;-69
2024/02/06 03:26:37;;;;;;;115.38;81.85;;;19.50;76.50;;;;;;5058471;28;20071;-71
2024/02/06 03:29:02;;;;;;;115.53;81.15;;;19.50;76.40;;;;;;5066245;28;20052;-70
2024/02/06 03:31:28;;;;;;;116.05;81.25;;;19.40;76.50;;;;;;5053438;28;20039;-70
2024/02/06 03:33:54;;;;;;;113.78;82.55;;;19.40;76.50;;;;;;5064523;28;20472;-70
2024/02/06 03:36:19;;;;;;;116.03;79.93;;;19.50;76.50;;;;;;5060248;28;20112;-69
2024/02/06 03:38:45;;;;;;;107.13;79.18;;;19.40;76.50;;;;;;5057256;28;20502;-70
2024/02/06 03:41:11;;;;;;;113.18;79.20;;;19.50;76.50;;;;;;5066172;28;20554;-70
2024/02/06 03:43:36;;;;;;;109.10;76.68;;;19.40;76.50;;;;;;5054188;28;20040;-70
2024/02/06 03:46:02;;;;;;;107.85;76.65;;;19.50;76.50;;;;;;5063163;28;20017;-68
2024/02/06 03:48:27;;;;;;;100.65;73.60;;;19.40;76.50;;;;;;5061250;28;20442;-70
2024/02/06 03:50:53;;;;;;;101.15;73.03;;;19.40;76.50;;;;;;5055229;28;20554;-70
2024/02/06 03:53:19;;;;;;;108.28;75.68;;;19.40;76.40;;;;;;5066977;28;20082;-69
2024/02/06 03:55:44;;;;;;;104.28;74.57;;;19.40;76.50;;;;;;5056512;28;20065;-71
2024/02/06 03:58:10;;;;;;;106.22;74.95;;;19.40;76.50;;;;;;5065454;28;20032;-70
2024/02/06 04:00:36;;;;;;;107.88;73.60;;;19.40;76.50;;;;;;5046672;28;20029;-70
2024/02/06 04:03:01;;;;;;;103.28;72.30;;;19.40;76.60;;;;;;5064820;28;20113;-69
2024/02/06 04:05:27;;;;;;;102.65;73.50;;;19.40;76.50;;;;;;5057753;28;20071;-71
2024/02/06 04:07:53;;;;;;;96.80;68.57;;;19.50;76.60;;;;;;5057358;28;20013;-71
2024/02/06 04:10:18;;;;;;;100.07;72.63;;;19.50;76.60;;;;;;5049059;28;20143;-72
2024/02/06 04:12:44;;;;;;;101.13;71.90;;;19.50;76.50;;;;;;5047997;28;20481;-71
2024/02/06 04:15:10;;;;;;;96.15;69.18;;;19.50;76.50;;;;;;5048205;28;20151;-70
2024/02/06 04:17:36;;;;;;;96.13;68.82;;;19.50;76.60;;;;;;5055238;28;20430;-72
2024/02/06 04:20:01;;;;;;;94.07;69.18;;;19.50;76.60;;;;;;5051269;28;20017;-69
2024/02/06 04:22:27;;;;;;;92.38;67.20;;;19.50;76.60;;;;;;5056606;28;20078;-73
2024/02/06 04:24:53;;;;;;;96.13;67.25;;;19.50;76.70;;;;;;5047563;28;20022;-72
2024/02/06 04:27:18;;;;;;;95.15;67.45;;;19.50;76.80;;;;;;5050084;28;20509;-72
2024/02/06 04:29:44;;;;;;;104.43;66.57;;;19.50;76.90;;;;;;5054293;28;20094;-72
2024/02/06 04:32:09;;;;;;;92.53;66.35;;;19.50;76.80;;;;;;5051509;28;20483;-72
2024/02/06 04:34:35;;;;;;;94.40;66.75;;;19.50;76.80;;;;;;5047603;28;20025;-72
2024/02/06 04:37:01;;;;;;;92.10;64.88;;;19.50;76.90;;;;;;5049625;28;20026;-71
2024/02/06 04:39:26;;;;;;;91.68;66.68;;;19.50;77.00;;;;;;5053186;28;20390;-71
2024/02/06 04:41:52;;;;;;;85.90;60.25;;;19.50;77.00;;;;;;5053640;28;20100;-71
2024/02/06 04:44:18;;;;;;;87.95;63.42;;;19.50;77.10;;;;;;5049392;28;20008;-69
2024/02/06 04:46:44;;;;;;;90.13;62.90;;;19.50;77.00;;;;;;5047334;28;20071;-71
2024/02/06 04:49:10;;;;;;;89.18;62.13;;;19.50;76.90;;;;;;5047583;28;20021;-70
2024/02/06 04:51:36;;;;;;;84.93;63.15;;;19.50;76.90;;;;;;5053692;28;20637;-70
2024/02/06 04:54:03;;;;;;;87.50;61.28;;;19.50;76.90;;;;;;5053667;28;20041;-69
2024/02/06 04:56:28;;;;;;;85.25;60.58;;;19.50;76.80;;;;;;5047095;28;20079;-70
2024/02/06 04:58:54;;;;;;;82.97;59.50;;;19.50;76.80;;;;;;5047177;28;20104;-74
2024/02/06 05:01:20;;;;;;;82.30;56.85;;;19.50;76.80;;;;;;5049492;28;20044;-70
2024/02/06 05:03:46;;;;;;;86.10;58.72;;;19.50;77.00;;;;;;5054103;28;20017;-71
2024/02/06 05:06:12;;;;;;;90.63;60.85;;;19.50;77.00;;;;;;5051088;28;20066;-72
2024/02/06 05:08:38;;;;;;;82.55;57.60;;;19.50;77.00;;;;;;5047242;28;20108;-71
2024/02/06 05:11:05;;;;;;;82.95;57.65;;;19.50;77.00;;;;;;5047738;28;20122;-72
2024/02/06 05:13:30;;;;;;;80.60;56.22;;;19.50;77.10;;;;;;5047421;28;20037;-70
2024/02/06 05:15:56;;;;;;;82.15;56.90;;;19.50;77.10;;;;;;5044765;28;20399;-70
2024/02/06 05:18:22;;;;;;;80.72;56.00;;;19.50;77.20;;;;;;5047682;28;20029;-69
2024/02/06 05:20:47;;;;;;;75.82;53.72;;;19.50;77.20;;;;;;5045994;28;20025;-70
2024/02/06 05:23:14;;;;;;;78.57;53.20;;;19.50;77.30;;;;;;5047781;28;20022;-70
2024/02/06 05:25:41;;;;;;;77.95;55.00;;;19.50;77.40;;;;;;5053466;28;20031;-70
2024/02/06 05:28:07;;;;;;;79.93;55.30;;;19.50;77.30;;;;;;5051743;28;20526;-70
2024/02/06 05:30:35;;;;;;;80.15;53.00;;;19.50;77.30;;;;;;5045889;28;20444;-68
2024/02/06 05:33:01;;;;;;;74.80;51.38;;;19.50;77.20;;;;;;5046394;28;20032;-68
2024/02/06 05:35:27;;;;;;;83.78;53.53;;;19.50;77.40;;;;;;5050097;28;20022;-68
2024/02/06 05:37:52;;;;;;;76.20;52.60;;;19.50;77.40;;;;;;5053125;28;20031;-67
2024/02/06 05:40:18;;;;;;;69.05;49.47;;;19.50;77.30;;;;;;5047730;28;20028;-66
2024/02/06 05:42:43;;;;;;;73.50;51.78;;;19.50;77.30;;;;;;5053776;28;20075;-71
2024/02/06 05:45:09;;;;;;;76.75;51.88;;;19.50;77.30;;;;;;5052674;28;20017;-71
2024/02/06 05:47:35;;;;;;;75.50;52.40;;;19.50;77.30;;;;;;5053063;28;20078;-72
2024/02/06 05:50:01;;;;;;;69.50;49.15;;;19.50;77.20;;;;;;5053496;28;20380;-69
2024/02/06 05:52:27;;;;;;;74.45;49.22;;;19.50;77.20;;;;;;5046167;28;20113;-73
2024/02/06 05:54:52;;;;;;;77.70;48.85;;;19.50;77.10;;;;;;5051609;28;20483;-72
2024/02/06 05:57:18;;;;;;;66.82;47.03;;;19.50;77.10;;;;;;5048715;28;20021;-73
2024/02/06 05:59:43;;;;;;;68.20;46.55;;;19.50;77.00;;;;;;5049890;28;20117;-70
2024/02/06 06:02:09;;;;;;;69.38;47.65;;;19.50;77.00;;;;;;5048038;28;20236;-69
2024/02/06 06:04:34;;;;;;;71.50;49.53;;;19.50;76.90;;;;;;5043589;28;20388;-69
2024/02/06 06:07:00;;;;;;;70.50;46.05;;;19.50;76.70;;;;;;5050159;28;20164;-68
2024/02/06 06:09:26;;;;;;;62.58;45.97;;;19.50;76.60;;;;;;5050523;28;20030;-71
2024/02/06 06:11:51;;;;;;;65.47;45.95;;;19.50;76.80;;;;;;5054376;28;20066;-71
2024/02/06 06:14:17;;;;;;;66.50;45.28;;;19.50;76.70;;;;;;5048264;28;20111;-70
2024/02/06 06:16:42;;;;;;;81.00;44.63;;;19.50;76.60;;;;;;5045603;28;20033;-72
2024/02/06 06:19:08;;;;;;;69.95;45.67;;;19.50;76.30;;;;;;5045269;28;20017;-71
2024/02/06 06:21:34;;;;;;;77.22;43.83;;;19.50;76.20;;;;;;5052032;28;20025;-73
2024/02/06 06:23:59;;;;;;;91.93;43.53;;;19.60;76.20;;;;;;5052641;28;20023;-69
2024/02/06 06:26:25;;;;;;;78.82;44.67;;;19.60;76.20;;;;;;5045842;28;20024;-68
2024/02/06 06:28:50;;;;;;;71.00;42.50;;;19.50;76.00;;;;;;5045904;28;20017;-68
2024/02/06 06:31:17;;;;;;;64.25;43.80;;;19.60;75.90;;;;;;5046811;28;20405;-68
2024/02/06 06:33:43;;;;;;;67.10;43.03;;;19.50;75.70;;;;;;5052719;28;20020;-69
2024/02/06 06:36:09;;;;;;;63.78;43.72;;;19.50;75.40;;;;;;5050033;28;20032;-69
2024/02/06 06:38:34;;;;;;;66.22;41.85;;;19.50;75.40;;;;;;5045477;28;20550;-69
2024/02/06 06:41:00;;;;;;;64.47;40.33;;;19.50;75.50;;;;;;5044641;28;20033;-70
2024/02/06 06:43:26;;;;;;;62.33;39.88;;;19.50;75.50;;;;;;5050464;28;20048;-69
2024/02/06 06:45:52;;;;;;;69.82;40.60;;;19.50;75.50;;;;;;5052567;28;20071;-69
2024/02/06 06:48:18;;;;;;;62.75;39.58;;;19.50;75.50;;;;;;5047856;28;20046;-69
2024/02/06 06:50:43;;;;;;;61.65;39.72;;;19.50;75.50;;;;;;5045110;28;20034;-70
2024/02/06 06:53:09;;;;;;;63.72;39.17;;;19.50;75.40;;;;;;5045426;28;20056;-69
2024/02/06 06:55:35;;;;;;;57.15;38.80;;;19.50;75.40;;;;;;5052246;28;20013;-71
2024/02/06 06:58:00;;;;;;;60.95;39.47;;;19.50;75.40;;;;;;5052394;28;20103;-67
2024/02/06 07:00:26;;;;;;;58.72;37.67;;;19.50;75.30;;;;;;5045561;28;20678;-69
2024/02/06 07:02:52;;;;;;;62.78;38.15;;;19.50;75.30;;;;;;5045343;28;20397;-69
2024/02/06 07:05:22;;;;;;;52.55;37.85;;;19.50;75.30;;;;;;5047594;28;20025;-68
2024/02/06 07:07:47;;;;;;;56.13;37.80;;;19.40;75.30;;;;;;5052119;28;20016;-68
2024/02/06 07:10:13;;;;;;;55.35;36.50;;;19.40;75.30;;;;;;5048251;28;20044;-68
2024/02/06 07:12:39;;;;;;;39.10;23.80;;;19.40;75.30;;;;;;5048001;28;20057;-67
2024/02/06 07:15:05;;;;;;;30.08;19.17;;;19.20;68.00;;;;;;5047172;28;20112;-68
2024/02/06 07:17:30;;;;;;;30.40;17.73;;;18.60;64.80;;;;;;5063765;28;20484;-66
2024/02/06 07:19:56;;;;;;;24.60;14.98;;;18.10;64.70;;;;;;5057162;28;20063;-67
2024/02/06 07:22:22;;;;;;;12.95;7.60;;;17.90;64.60;;;;;;5047927;28;20037;-67
2024/02/06 07:24:48;;;;;;;13.13;6.22;;;17.50;56.90;;;;;;5050195;28;20036;-66
2024/02/06 07:27:14;;;;;;;11.93;5.43;;;17.00;55.70;;;;;;5050320;28;20013;-66
2024/02/06 07:29:39;;;;;;;8.93;4.75;;;16.60;54.10;;;;;;5049602;28;20386;-66
2024/02/06 07:32:05;;;;;;;9.23;4.38;;;16.30;52.60;;;;;;5053788;28;20030;-66
2024/02/06 07:34:31;;;;;;;8.98;3.88;;;15.80;52.90;;;;;;5053720;28;20045;-66
2024/02/06 07:36:56;;;;;;;10.18;4.05;;;15.40;53.30;;;;;;5054702;28;20032;-68
2024/02/06 07:39:22;;;;;;;10.45;4.22;;;15.30;56.10;;;;;;5054622;28;20030;-68
2024/02/06 07:41:47;;;;;;;8.10;3.60;;;15.60;60.00;;;;;;5054002;28;20029;-67
2024/02/06 07:44:13;;;;;;;7.80;3.85;;;15.90;63.50;;;;;;5054573;28;20377;-70
2024/02/06 07:46:38;;;;;;;6.00;3.60;;;16.20;65.50;;;;;;5054587;28;20104;-67
2024/02/06 07:49:04;;;;;;;7.30;3.78;;;16.50;66.60;;;;;;5054544;28;20571;-68
2024/02/06 07:51:30;;;;;;;6.75;3.38;;;16.80;66.90;;;;;;5053892;28;20056;-68
2024/02/06 07:53:56;;;;;;;10.50;3.63;;;17.00;67.40;;;;;;5054844;28;20484;-68
2024/02/06 07:56:22;;;;;;;8.50;3.88;;;17.30;67.70;;;;;;5054959;28;20025;-68
2024/02/06 07:58:48;;;;;;;9.85;3.20;;;17.50;67.60;;;;;;5054546;28;20055;-67
2024/02/06 08:01:15;;;;;;;7.32;3.35;;;17.70;67.90;;;;;;5052659;28;20504;-68
2024/02/06 08:03:41;;;;;;;10.07;3.15;;;17.80;67.60;;;;;;5054341;28;20029;-69
2024/02/06 08:06:07;;;;;;;6.22;2.90;;;18.00;67.70;;;;;;5054329;28;20017;-68
2024/02/06 08:08:33;;;;;;;5.55;2.80;;;18.10;67.70;;;;;;5054515;28;20020;-68
2024/02/06 08:10:59;;;;;;;7.30;2.80;;;18.20;67.60;;;;;;5053975;28;20033;-68
2024/02/06 08:13:26;;;;;;;5.38;2.97;;;18.30;67.60;;;;;;5054527;28;20040;-68
2024/02/06 08:15:52;;;;;;;9.20;2.97;;;18.40;67.50;;;;;;5054764;28;20033;-68
2024/02/06 08:18:18;;;;;;;4.47;2.90;;;18.50;67.50;;;;;;5054208;28;20071;-68
2024/02/06 08:20:44;;;;;;;6.35;3.15;;;18.50;67.40;;;;;;5054336;28;20103;-68
2024/02/06 08:23:09;;;;;;;6.38;2.47;;;18.50;67.40;;;;;;5055095;28;20048;-68
2024/02/06 08:25:35;;;;;;;5.65;2.30;;;18.60;67.40;;;;;;5054959;28;20021;-70
2024/02/06 08:28:00;;;;;;;5.13;2.35;;;18.70;67.40;;;;;;5054671;28;20025;-69
2024/02/06 08:30:26;;;;;;;7.57;2.75;;;18.70;67.40;;;;;;5053084;28;20083;-69
2024/02/06 08:32:52;;;;;;;6.82;3.05;;;18.70;67.40;;;;;;5054427;28;20472;-69
2024/02/06 08:35:17;;;;;;;5.97;2.63;;;18.70;67.40;;;;;;5053026;28;20029;-69
2024/02/06 08:37:43;;;;;;;4.28;2.45;;;18.80;67.40;;;;;;5053558;28;20033;-69
2024/02/06 08:40:10;;;;;;;5.38;2.30;;;18.80;67.40;;;;;;5054375;28;20035;-68
2024/02/06 08:42:37;;;;;;;4.75;2.40;;;18.80;67.50;;;;;;5053863;28;20029;-68
2024/02/06 08:45:03;;;;;;;5.78;2.35;;;18.80;67.40;;;;;;5054411;28;20021;-68
2024/02/06 08:47:29;;;;;;;3.88;2.25;;;18.80;67.40;;;;;;5054240;28;20021;-68
2024/02/06 08:49:55;;;;;;;4.70;2.28;;;18.80;67.40;;;;;;5054290;28;20550;-69
2024/02/06 08:52:21;;;;;;;3.97;2.38;;;18.90;67.50;;;;;;5054330;28;20074;-68
2024/02/06 08:54:47;;;;;;;4.93;2.22;;;18.90;67.50;;;;;;5054331;28;20111;-68
2024/02/06 08:57:12;;;;;;;4.38;2.38;;;18.90;67.50;;;;;;5054100;28;20021;-69
2024/02/06 08:59:38;;;;;;;7.95;2.70;;;18.90;67.50;;;;;;5054038;28;20017;-68
2024/02/06 09:02:04;;;;;;;4.53;2.20;;;18.90;67.50;;;;;;5053700;28;20017;-68
2024/02/06 09:04:30;;;;;;;5.05;2.10;;;19.00;67.50;;;;;;5053738;28;20071;-68
2024/02/06 09:06:56;;;;;;;3.63;1.92;;;18.90;67.50;;;;;;5053606;28;20029;-68
2024/02/06 09:09:22;;;;;;;3.47;2.00;;;19.00;67.60;;;;;;5053723;28;20655;-68
2024/02/06 09:11:48;;;;;;;3.42;1.98;;;19.00;67.60;;;;;;5053496;28;20095;-68
2024/02/06 09:14:14;;;;;;;3.53;1.90;;;19.00;67.60;;;;;;5053669;28;20029;-68
2024/02/06 09:16:39;;;;;;;3.58;1.80;;;19.00;67.60;;;;;;5053239;28;20056;-69
2024/02/06 09:19:05;;;;;;;4.22;2.60;;;19.00;67.60;;;;;;5053215;28;20079;-68
2024/02/06 09:21:33;;;;;;;3.60;1.90;;;19.00;67.60;;;;;;5053027;28;20064;-69
2024/02/06 09:23:58;;;;;;;5.07;1.80;;;19.00;67.60;;;;;;5051692;28;20111;-69
2024/02/06 09:26:24;;;;;;;3.20;1.75;;;19.00;67.60;;;;;;5052047;28;20573;-68
2024/02/06 09:28:49;;;;;;;3.67;1.90;;;19.00;67.60;;;;;;5052078;28;20039;-68
2024/02/06 09:31:15;;;;;;;3.25;1.98;;;19.00;67.60;;;;;;5052967;28;20385;-68
2024/02/06 09:33:42;;;;;;;2.90;2.05;;;19.00;67.60;;;;;;5053490;28;20032;-68
2024/02/06 09:36:08;;;;;;;4.88;2.17;;;19.00;67.70;;;;;;5053028;28;20020;-67
2024/02/06 09:38:33;;;;;;;4.13;1.98;;;19.00;67.70;;;;;;5051761;28;20057;-68
2024/02/06 09:41:00;;;;;;;3.95;2.30;;;19.00;67.70;;;;;;5053040;28;20252;-69
2024/02/06 09:43:26;;;;;;;4.03;1.83;;;19.00;67.80;;;;;;5053077;28;20017;-68
2024/02/06 09:45:52;;;;;;;4.10;2.33;;;19.00;67.80;;;;;;5053162;28;20397;-69
2024/02/06 09:48:18;;;;;;;3.58;1.80;;;19.00;67.80;;;;;;5052871;28;20017;-68
2024/02/06 09:50:44;;;;;;;3.13;1.52;;;19.00;67.90;;;;;;5052353;28;20028;-68
2024/02/06 09:53:10;;;;;;;4.40;1.75;;;19.00;68.00;;;;;;5052012;28;20021;-68
2024/02/06 09:55:38;;;;;;;3.58;1.75;;;19.00;68.00;;;;;;5052924;28;20021;-68
2024/02/06 09:58:04;;;;;;;5.57;2.13;;;19.00;68.10;;;;;;5052676;28;20473;-68
2024/02/06 10:00:32;;;;;;;4.05;1.80;;;19.00;68.20;;;;;;5052031;28;20100;-68
2024/02/06 10:03:01;;;;;;;2.30;1.65;;;19.00;68.20;;;;;;5052741;28;20027;-68
2024/02/06 10:05:32;;;;;;;3.15;1.73;;;19.00;68.20;;;;;;5052538;28;20025;-69
2024/02/06 10:07:59;;;;;;;3.05;1.92;;;19.00;68.20;;;;;;5052893;28;20434;-69
2024/02/06 10:10:26;;;;;;;2.95;1.67;;;19.00;68.20;;;;;;5052319;28;20056;-68
2024/02/06 10:12:51;;;;;;;1.67;1.58;;;19.00;68.30;;;;;;5052462;28;20518;-68
2024/02/06 10:15:19;;;;;;;3.97;1.63;;;19.00;68.20;;;;;;5052836;28;20029;-69
2024/02/06 10:17:45;;;;;;;4.45;2.35;;;19.00;68.30;;;;;;5052818;28;20129;-68
2024/02/06 10:20:11;;;;;;;3.65;2.00;;;19.00;68.30;;;;;;5052359;28;20113;-65
2024/02/06 10:22:41;;;;;;;3.97;2.08;;;19.00;68.40;;;;;;5050888;28;20033;-68
2024/02/06 10:25:10;;;;;;;2.75;1.30;;;19.00;68.40;;;;;;5052127;28;20395;-68
2024/02/06 10:27:35;;;;;;;3.78;1.30;;;19.00;68.40;;;;;;5052204;28;20021;-68
2024/02/06 10:30:02;;;;;;;1.90;1.65;;;19.00;68.40;;;;;;5052007;28;20021;-68
2024/02/06 10:32:34;;;;;;;3.65;1.67;;;19.00;68.40;;;;;;5046159;28;20022;-69
2024/02/06 10:35:07;;;;;;;2.65;1.73;;;19.00;68.40;;;;;;5032515;28;20113;-68
2024/02/06 10:37:37;;;;;;;3.38;1.77;;;19.00;68.50;;;;;;5031940;28;20028;-68
2024/02/06 10:40:10;;;;;;;3.72;1.27;;;19.00;68.50;;;;;;5032118;28;20021;-68
2024/02/06 10:42:36;;;;;;;2.85;1.77;;;19.00;68.50;;;;;;5032051;28;20570;-68
2024/02/06 10:45:03;;;;;;;4.82;2.28;;;19.00;68.50;;;;;;5032029;28;20029;-68
2024/02/06 10:47:29;;;;;;;2.47;1.50;;;19.00;68.60;;;;;;5031919;28;20037;-69
2024/02/06 10:50:09;;;;;;;3.35;2.10;;;19.00;68.60;;;;;;5031862;28;20600;-68
2024/02/06 10:52:35;;;;;;;2.17;1.40;;;19.00;68.60;;;;;;5032027;28;20057;-68
2024/02/06 10:55:03;;;;;;;2.13;1.65;;;19.00;68.60;;;;;;5031732;28;20076;-68
2024/02/06 10:57:34;;;;;;;2.75;1.85;;;19.00;68.70;;;;;;5031885;28;20037;-68
2024/02/06 11:00:07;;;;;;;1.92;1.40;;;19.00;68.70;;;;;;5031765;28;20029;-69
2024/02/06 11:02:34;;;;;;;1.92;1.60;;;19.00;68.70;;;;;;5031618;28;20022;-68
2024/02/06 11:05:30;;;;;;;2.00;1.30;;;19.00;68.70;;;;;;5031378;28;20025;-68
2024/02/06 11:08:11;;;;;;;2.38;1.60;;;19.00;68.80;;;;;;5031620;28;20056;-69
2024/02/06 11:10:42;;;;;;;2.15;1.63;;;19.00;68.80;;;;;;5031589;28;20033;-67
2024/02/06 11:13:13;;;;;;;3.75;1.80;;;19.00;68.80;;;;;;5031699;28;20033;-68
2024/02/06 11:15:40;;;;;;;1.58;1.15;;;19.00;68.90;;;;;;5032272;28;20075;-68
2024/02/06 11:18:13;;;;;;;2.15;1.42;;;19.00;68.90;;;;;;5033043;28;20564;-68
2024/02/06 11:20:41;;;;;;;1.77;1.33;;;19.00;68.90;;;;;;5033753;28;20029;-68
2024/02/06 11:23:07;;;;;;;1.60;1.25;;;19.00;68.90;;;;;;5034261;28;20026;-69
2024/02/06 11:25:35;;;;;;;2.15;1.30;;;19.00;68.90;;;;;;5047373;28;20112;-69
2024/02/06 11:28:03;;;;;;;3.08;1.52;;;19.00;68.90;;;;;;5056282;28;20025;-68
2024/02/06 11:30:31;;;;;;;3.00;1.48;;;19.00;68.90;;;;;;5052249;28;20028;-68
2024/02/06 11:33:06;;;;;;;1.67;1.35;;;19.00;69.00;;;;;;5051432;28;20100;-69
2024/02/06 11:35:32;;;;;;;2.40;1.30;;;19.00;69.00;;;;;;5051331;28;20029;-68
2024/02/06 11:37:57;;;;;;;1.98;1.23;;;19.00;69.00;;;;;;5051244;28;20459;-68
2024/02/06 11:40:25;;;;;;;1.67;1.23;;;19.00;69.00;;;;;;5049179;28;20056;-68
2024/02/06 11:43:00;;;;;;;2.40;1.33;;;19.00;69.00;;;;;;5050939;28;20044;-68
2024/02/06 11:45:25;;;;;;;1.83;1.00;;;19.00;69.00;;;;;;5051134;28;20032;-68
2024/02/06 11:48:06;;;;;;;1.98;1.27;;;19.00;69.00;;;;;;5051367;28;20423;-69
2024/02/06 11:50:44;;;;;;;1.60;1.20;;;19.00;69.00;;;;;;5050895;28;20029;-68
2024/02/06 11:53:14;;;;;;;1.92;1.27;;;19.00;69.00;;;;;;5050853;28;20064;-68
2024/02/06 11:55:43;;;;;;;2.00;1.42;;;19.00;69.00;;;;;;5050970;28;20071;-69
2024/02/06 11:58:10;;;;;;;1.73;1.42;;;19.00;69.10;;;;;;5050996;28;20061;-69
2024/02/06 12:00:36;;;;;;;2.60;1.50;;;19.00;69.00;;;;;;5051075;28;20032;-69
2024/02/06 12:03:02;;;;;;;1.55;1.20;;;19.00;69.00;;;;;;5051136;28;20083;-69
2024/02/06 12:05:41;;;;;;;3.33;1.55;;;19.00;69.10;;;;;;5051274;28;20503;-68
2024/02/06 12:08:07;;;;;;;1.98;1.20;;;19.00;69.10;;;;;;5051124;28;20096;-68
2024/02/06 12:10:35;;;;;;;1.35;1.10;;;19.00;69.10;;;;;;5051045;28;20439;-68
2024/02/06 12:13:06;;;;;;;2.28;1.20;;;19.00;69.10;;;;;;5051055;28;20409;-69
2024/02/06 12:15:32;;;;;;;1.90;1.15;;;19.00;69.10;;;;;;5050776;28;20021;-68
2024/02/06 12:17:58;;;;;;;1.60;1.25;;;19.00;69.10;;;;;;5053971;28;20064;-68
2024/02/06 12:20:27;;;;;;;1.95;1.05;;;19.00;69.10;;;;;;5054452;28;20024;-68
2024/02/06 12:22:57;;;;;;;2.38;1.63;;;19.00;69.10;;;;;;5054615;28;20113;-68
2024/02/06 12:25:24;;;;;;;2.67;1.17;;;19.00;69.10;;;;;;5054459;28;20032;-69
2024/02/06 12:28:12;;;;;;;2.90;1.13;;;19.00;69.20;;;;;;5054291;28;20113;-68